sensor_id;sensor_type;location;lat;lon;timestamp;pressure;altitude;pressure_sealevel;temperature
71960;BMP280;59832;51.146;14.024;2022-12-18T00:02:11;99813.00;;;-5.29
71960;BMP280;59832;51.146;14.024;2022-12-18T00:04:37;99806.31;;;-5.28
71960;BMP280;59832;51.146;14.024;2022-12-18T00:07:04;99797.84;;;-5.60
71960;BMP280;59832;51.146;14.024;2022-12-18T00:09:30;99809.34;;;-5.39
71960;BMP280;59832;51.146;14.024;2022-12-18T00:12:05;99808.63;;;-5.20
71960;BMP280;59832;51.146;14.024;2022-12-18T00:14:41;99813.97;;;-5.23
71960;BMP280;59832;51.146;14.024;2022-12-18T00:17:09;99804.22;;;-5.25
71960;BMP280;59832;51.146;14.024;2022-12-18T00:19:35;99802.81;;;-5.54
71960;BMP280;59832;51.146;14.024;2022-12-18T00:22:02;99800.34;;;-5.54
71960;BMP280;59832;51.146;14.024;2022-12-18T00:24:29;99798.84;;;-5.55
71960;BMP280;59832;51.146;14.024;2022-12-18T00:26:55;99806.81;;;-5.72
71960;BMP280;59832;51.146;14.024;2022-12-18T00:29:21;99814.63;;;-5.62
71960;BMP280;59832;51.146;14.024;2022-12-18T00:31:48;99810.72;;;-5.91
71960;BMP280;59832;51.146;14.024;2022-12-18T00:34:14;99805.97;;;-5.80
71960;BMP280;59832;51.146;14.024;2022-12-18T00:36:41;99813.41;;;-5.86
71960;BMP280;59832;51.146;14.024;2022-12-18T00:39:09;99813.81;;;-5.83
71960;BMP280;59832;51.146;14.024;2022-12-18T00:41:36;99825.09;;;-5.80
71960;BMP280;59832;51.146;14.024;2022-12-18T00:44:21;99822.59;;;-5.73
71960;BMP280;59832;51.146;14.024;2022-12-18T00:46:47;99837.66;;;-5.75
71960;BMP280;59832;51.146;14.024;2022-12-18T00:49:19;99852.22;;;-5.59
71960;BMP280;59832;51.146;14.024;2022-12-18T00:51:46;99852.59;;;-5.68
71960;BMP280;59832;51.146;14.024;2022-12-18T00:54:12;99852.09;;;-5.98
71960;BMP280;59832;51.146;14.024;2022-12-18T00:56:40;99845.25;;;-5.90
71960;BMP280;59832;51.146;14.024;2022-12-18T00:59:14;99856.56;;;-6.15
71960;BMP280;59832;51.146;14.024;2022-12-18T01:01:40;99852.44;;;-6.01
71960;BMP280;59832;51.146;14.024;2022-12-18T01:04:07;99855.47;;;-6.06
71960;BMP280;59832;51.146;14.024;2022-12-18T01:06:34;99856.47;;;-6.00
71960;BMP280;59832;51.146;14.024;2022-12-18T01:09:01;99861.09;;;-6.19
71960;BMP280;59832;51.146;14.024;2022-12-18T01:11:28;99871.38;;;-6.22
71960;BMP280;59832;51.146;14.024;2022-12-18T01:13:54;99860.28;;;-5.98
71960;BMP280;59832;51.146;14.024;2022-12-18T01:16:21;99858.75;;;-5.99
71960;BMP280;59832;51.146;14.024;2022-12-18T01:18:51;99853.22;;;-6.01
71960;BMP280;59832;51.146;14.024;2022-12-18T01:21:18;99856.66;;;-5.95
71960;BMP280;59832;51.146;14.024;2022-12-18T01:23:45;99856.47;;;-6.00
71960;BMP280;59832;51.146;14.024;2022-12-18T01:26:14;99855.81;;;-6.16
71960;BMP280;59832;51.146;14.024;2022-12-18T01:28:42;99862.50;;;-6.09
71960;BMP280;59832;51.146;14.024;2022-12-18T01:33:39;99851.75;;;-5.89
71960;BMP280;59832;51.146;14.024;2022-12-18T01:36:07;99855.88;;;-5.96
71960;BMP280;59832;51.146;14.024;2022-12-18T01:38:33;99848.63;;;-6.32
71960;BMP280;59832;51.146;14.024;2022-12-18T01:41:01;99855.38;;;-6.19
71960;BMP280;59832;51.146;14.024;2022-12-18T01:43:40;99855.25;;;-6.04
71960;BMP280;59832;51.146;14.024;2022-12-18T01:46:07;99851.69;;;-6.02
71960;BMP280;59832;51.146;14.024;2022-12-18T01:48:33;99844.19;;;-6.15
71960;BMP280;59832;51.146;14.024;2022-12-18T01:51:00;99858.44;;;-6.17
71960;BMP280;59832;51.146;14.024;2022-12-18T01:53:27;99856.06;;;-6.32
71960;BMP280;59832;51.146;14.024;2022-12-18T01:55:58;99866.22;;;-6.27
71960;BMP280;59832;51.146;14.024;2022-12-18T01:58:54;99874.41;;;-6.26
71960;BMP280;59832;51.146;14.024;2022-12-18T02:01:22;99872.06;;;-6.34
71960;BMP280;59832;51.146;14.024;2022-12-18T02:03:49;99872.31;;;-6.23
71960;BMP280;59832;51.146;14.024;2022-12-18T02:06:21;99869.28;;;-6.25
71960;BMP280;59832;51.146;14.024;2022-12-18T02:09:01;99875.91;;;-6.32
71960;BMP280;59832;51.146;14.024;2022-12-18T02:14:28;99882.22;;;-6.23
71960;BMP280;59832;51.146;14.024;2022-12-18T02:25:17;99881.19;;;-6.41
71960;BMP280;59832;51.146;14.024;2022-12-18T02:27:48;99880.16;;;-6.47
71960;BMP280;59832;51.146;14.024;2022-12-18T02:30:17;99877.06;;;-6.56
71960;BMP280;59832;51.146;14.024;2022-12-18T02:32:47;99878.19;;;-6.79
71960;BMP280;59832;51.146;14.024;2022-12-18T02:35:20;99883.44;;;-6.68
71960;BMP280;59832;51.146;14.024;2022-12-18T02:37:48;99889.16;;;-6.67
71960;BMP280;59832;51.146;14.024;2022-12-18T02:40:16;99888.13;;;-6.73
71960;BMP280;59832;51.146;14.024;2022-12-18T02:42:43;99879.59;;;-6.92
71960;BMP280;59832;51.146;14.024;2022-12-18T02:45:10;99885.09;;;-7.11
71960;BMP280;59832;51.146;14.024;2022-12-18T02:47:39;99890.31;;;-7.06
71960;BMP280;59832;51.146;14.024;2022-12-18T02:50:45;99890.72;;;-7.02
71960;BMP280;59832;51.146;14.024;2022-12-18T02:53:17;99886.72;;;-7.03
71960;BMP280;59832;51.146;14.024;2022-12-18T02:58:18;99880.88;;;-6.96
71960;BMP280;59832;51.146;14.024;2022-12-18T03:01:03;99879.06;;;-6.87
71960;BMP280;59832;51.146;14.024;2022-12-18T03:03:41;99872.88;;;-7.19
71960;BMP280;59832;51.146;14.024;2022-12-18T03:06:39;99873.16;;;-7.07
71960;BMP280;59832;51.146;14.024;2022-12-18T03:09:09;99874.38;;;-7.18
71960;BMP280;59832;51.146;14.024;2022-12-18T03:11:40;99874.97;;;-7.16
71960;BMP280;59832;51.146;14.024;2022-12-18T03:14:29;99882.38;;;-7.16
71960;BMP280;59832;51.146;14.024;2022-12-18T03:17:00;99885.22;;;-7.19
71960;BMP280;59832;51.146;14.024;2022-12-18T03:19:29;99884.84;;;-7.16
71960;BMP280;59832;51.146;14.024;2022-12-18T03:22:00;99879.97;;;-7.09
71960;BMP280;59832;51.146;14.024;2022-12-18T03:24:29;99880.94;;;-7.10
71960;BMP280;59832;51.146;14.024;2022-12-18T03:27:01;99890.81;;;-7.10
71960;BMP280;59832;51.146;14.024;2022-12-18T03:29:49;99893.06;;;-7.16
71960;BMP280;59832;51.146;14.024;2022-12-18T03:32:31;99890.84;;;-7.25
71960;BMP280;59832;51.146;14.024;2022-12-18T03:35:02;99885.38;;;-7.21
71960;BMP280;59832;51.146;14.024;2022-12-18T03:37:30;99886.06;;;-7.12
71960;BMP280;59832;51.146;14.024;2022-12-18T03:39:56;99888.75;;;-7.28
71960;BMP280;59832;51.146;14.024;2022-12-18T03:42:48;99902.13;;;-7.37
71960;BMP280;59832;51.146;14.024;2022-12-18T03:45:22;99896.16;;;-7.43
71960;BMP280;59832;51.146;14.024;2022-12-18T03:47:56;99894.94;;;-7.32
71960;BMP280;59832;51.146;14.024;2022-12-18T03:50:30;99909.44;;;-7.44
71960;BMP280;59832;51.146;14.024;2022-12-18T03:53:08;99908.78;;;-7.38
71960;BMP280;59832;51.146;14.024;2022-12-18T03:55:36;99914.13;;;-7.34
71960;BMP280;59832;51.146;14.024;2022-12-18T03:58:04;99909.56;;;-7.37
71960;BMP280;59832;51.146;14.024;2022-12-18T04:00:33;99905.59;;;-7.32
71960;BMP280;59832;51.146;14.024;2022-12-18T04:03:01;99906.44;;;-7.10
71960;BMP280;59832;51.146;14.024;2022-12-18T04:05:30;99905.69;;;-7.25
71960;BMP280;59832;51.146;14.024;2022-12-18T04:07:58;99905.59;;;-7.32
71960;BMP280;59832;51.146;14.024;2022-12-18T04:10:25;99911.41;;;-7.25
71960;BMP280;59832;51.146;14.024;2022-12-18T04:12:55;99906.28;;;-7.23
71960;BMP280;59832;51.146;14.024;2022-12-18T04:15:22;99898.25;;;-7.10
71960;BMP280;59832;51.146;14.024;2022-12-18T04:17:49;99920.03;;;-7.21
71960;BMP280;59832;51.146;14.024;2022-12-18T04:20:17;99916.53;;;-7.11
71960;BMP280;59832;51.146;14.024;2022-12-18T04:22:43;99921.19;;;-7.02
71960;BMP280;59832;51.146;14.024;2022-12-18T04:25:10;99925.31;;;-7.24
71960;BMP280;59832;51.146;14.024;2022-12-18T04:27:36;99925.28;;;-6.94
71960;BMP280;59832;51.146;14.024;2022-12-18T04:30:03;99922.03;;;-7.09
71960;BMP280;59832;51.146;14.024;2022-12-18T04:32:29;99922.91;;;-7.02
71960;BMP280;59832;51.146;14.024;2022-12-18T04:34:57;99924.88;;;-7.12
71960;BMP280;59832;51.146;14.024;2022-12-18T04:37:23;99930.09;;;-7.07
71960;BMP280;59832;51.146;14.024;2022-12-18T04:39:50;99933.09;;;-6.91
71960;BMP280;59832;51.146;14.024;2022-12-18T04:42:19;99926.19;;;-6.80
71960;BMP280;59832;51.146;14.024;2022-12-18T04:44:45;99931.19;;;-6.95
71960;BMP280;59832;51.146;14.024;2022-12-18T04:47:12;99935.97;;;-6.94
71960;BMP280;59832;51.146;14.024;2022-12-18T04:49:38;99940.53;;;-6.91
71960;BMP280;59832;51.146;14.024;2022-12-18T04:52:04;99945.31;;;-6.89
71960;BMP280;59832;51.146;14.024;2022-12-18T04:54:31;99942.66;;;-6.88
71960;BMP280;59832;51.146;14.024;2022-12-18T04:56:57;99950.97;;;-6.74
71960;BMP280;59832;51.146;14.024;2022-12-18T04:59:24;99947.78;;;-6.89
71960;BMP280;59832;51.146;14.024;2022-12-18T05:01:50;99950.03;;;-6.73
71960;BMP280;59832;51.146;14.024;2022-12-18T05:04:17;99951.38;;;-6.56
71960;BMP280;59832;51.146;14.024;2022-12-18T05:06:45;99937.63;;;-6.79
71960;BMP280;59832;51.146;14.024;2022-12-18T05:09:11;99938.22;;;-6.56
71960;BMP280;59832;51.146;14.024;2022-12-18T05:11:38;99934.56;;;-6.60
71960;BMP280;59832;51.146;14.024;2022-12-18T05:14:04;99939.69;;;-6.62
71960;BMP280;59832;51.146;14.024;2022-12-18T05:16:30;99947.19;;;-6.55
71960;BMP280;59832;51.146;14.024;2022-12-18T05:18:57;99944.28;;;-6.59
71960;BMP280;59832;51.146;14.024;2022-12-18T05:21:24;99935.00;;;-6.71
71960;BMP280;59832;51.146;14.024;2022-12-18T05:23:50;99938.56;;;-6.59
71960;BMP280;59832;51.146;14.024;2022-12-18T05:26:18;99939.84;;;-6.63
71960;BMP280;59832;51.146;14.024;2022-12-18T05:28:44;99940.03;;;-6.65
71960;BMP280;59832;51.146;14.024;2022-12-18T05:31:11;99942.25;;;-6.70
71960;BMP280;59832;51.146;14.024;2022-12-18T05:33:37;99946.16;;;-6.61
71960;BMP280;59832;51.146;14.024;2022-12-18T05:36:06;99944.47;;;-6.60
71960;BMP280;59832;51.146;14.024;2022-12-18T05:38:36;99947.06;;;-6.68
71960;BMP280;59832;51.146;14.024;2022-12-18T05:41:03;99947.06;;;-6.68
71960;BMP280;59832;51.146;14.024;2022-12-18T05:43:30;99952.03;;;-6.68
71960;BMP280;59832;51.146;14.024;2022-12-18T05:45:57;99954.31;;;-6.67
71960;BMP280;59832;51.146;14.024;2022-12-18T05:48:23;99954.38;;;-6.60
71960;BMP280;59832;51.146;14.024;2022-12-18T05:50:50;99952.34;;;-6.71
71960;BMP280;59832;51.146;14.024;2022-12-18T05:53:19;99956.22;;;-6.69
71960;BMP280;59832;51.146;14.024;2022-12-18T05:55:46;99944.88;;;-6.78
71960;BMP280;59832;51.146;14.024;2022-12-18T05:58:14;99952.53;;;-6.73
71960;BMP280;59832;51.146;14.024;2022-12-18T06:00:42;99953.25;;;-6.79
71960;BMP280;59832;51.146;14.024;2022-12-18T06:03:10;99969.13;;;-6.88
71960;BMP280;59832;51.146;14.024;2022-12-18T06:05:42;99964.72;;;-6.71
71960;BMP280;59832;51.146;14.024;2022-12-18T06:08:09;99966.66;;;-6.88
71960;BMP280;59832;51.146;14.024;2022-12-18T06:10:37;99966.09;;;-6.84
71960;BMP280;59832;51.146;14.024;2022-12-18T06:13:04;99968.31;;;-6.74
71960;BMP280;59832;51.146;14.024;2022-12-18T06:15:30;99973.75;;;-6.85
71960;BMP280;59832;51.146;14.024;2022-12-18T06:17:57;99975.13;;;-6.97
71960;BMP280;59832;51.146;14.024;2022-12-18T06:20:24;99968.44;;;-6.82
71960;BMP280;59832;51.146;14.024;2022-12-18T06:22:58;99961.38;;;-6.85
71960;BMP280;59832;51.146;14.024;2022-12-18T06:25:24;99971.38;;;-6.93
71960;BMP280;59832;51.146;14.024;2022-12-18T06:27:51;99967.47;;;-7.02
71960;BMP280;59832;51.146;14.024;2022-12-18T06:30:17;99974.81;;;-6.94
71960;BMP280;59832;51.146;14.024;2022-12-18T06:32:44;99969.53;;;-7.06
71960;BMP280;59832;51.146;14.024;2022-12-18T06:35:13;99965.75;;;-7.02
71960;BMP280;59832;51.146;14.024;2022-12-18T06:37:40;99979.84;;;-7.17
71960;BMP280;59832;51.146;14.024;2022-12-18T06:40:07;99982.31;;;-7.02
71960;BMP280;59832;51.146;14.024;2022-12-18T06:42:34;99980.00;;;-7.04
71960;BMP280;59832;51.146;14.024;2022-12-18T06:45:00;99971.22;;;-7.21
71960;BMP280;59832;51.146;14.024;2022-12-18T06:47:26;99980.19;;;-7.05
71960;BMP280;59832;51.146;14.024;2022-12-18T06:49:53;99980.03;;;-7.19
71960;BMP280;59832;51.146;14.024;2022-12-18T06:52:19;99980.88;;;-7.26
71960;BMP280;59832;51.146;14.024;2022-12-18T06:54:46;99987.88;;;-7.30
71960;BMP280;59832;51.146;14.024;2022-12-18T06:57:12;99998.19;;;-7.41
71960;BMP280;59832;51.146;14.024;2022-12-18T06:59:38;100008.09;;;-7.26
71960;BMP280;59832;51.146;14.024;2022-12-18T07:02:05;100011.91;;;-7.24
71960;BMP280;59832;51.146;14.024;2022-12-18T07:04:32;100008.34;;;-7.21
71960;BMP280;59832;51.146;14.024;2022-12-18T07:06:58;100006.72;;;-7.14
71960;BMP280;59832;51.146;14.024;2022-12-18T07:09:24;100018.19;;;-7.28
71960;BMP280;59832;51.146;14.024;2022-12-18T07:11:52;100007.13;;;-7.25
71960;BMP280;59832;51.146;14.024;2022-12-18T07:14:18;100008.63;;;-7.31
71960;BMP280;59832;51.146;14.024;2022-12-18T07:16:45;100011.22;;;-7.32
71960;BMP280;59832;51.146;14.024;2022-12-18T07:19:11;100011.00;;;-7.37
71960;BMP280;59832;51.146;14.024;2022-12-18T07:21:38;100021.00;;;-7.31
71960;BMP280;59832;51.146;14.024;2022-12-18T07:24:05;100015.94;;;-7.37
71960;BMP280;59832;51.146;14.024;2022-12-18T07:26:32;100022.53;;;-7.30
71960;BMP280;59832;51.146;14.024;2022-12-18T07:28:58;100025.25;;;-7.10
71960;BMP280;59832;51.146;14.024;2022-12-18T07:31:26;100013.78;;;-6.82
71960;BMP280;59832;51.146;14.024;2022-12-18T07:33:53;100025.91;;;-6.87
71960;BMP280;59832;51.146;14.024;2022-12-18T07:36:23;100028.34;;;-6.93
71960;BMP280;59832;51.146;14.024;2022-12-18T07:38:49;100026.69;;;-7.01
71960;BMP280;59832;51.146;14.024;2022-12-18T07:41:18;100026.50;;;-6.85
71960;BMP280;59832;51.146;14.024;2022-12-18T07:43:45;100028.13;;;-6.77
71960;BMP280;59832;51.146;14.024;2022-12-18T07:46:12;100041.41;;;-6.63
71960;BMP280;59832;51.146;14.024;2022-12-18T07:48:43;100054.91;;;-6.66
71960;BMP280;59832;51.146;14.024;2022-12-18T07:51:15;100060.50;;;-6.57
71960;BMP280;59832;51.146;14.024;2022-12-18T07:53:42;100054.34;;;-6.47
71960;BMP280;59832;51.146;14.024;2022-12-18T07:56:10;100052.44;;;-6.30
71960;BMP280;59832;51.146;14.024;2022-12-18T07:58:57;100058.59;;;-6.26
71960;BMP280;59832;51.146;14.024;2022-12-18T08:01:24;100067.31;;;-6.30
71960;BMP280;59832;51.146;14.024;2022-12-18T08:03:51;100060.16;;;-6.18
71960;BMP280;59832;51.146;14.024;2022-12-18T08:06:18;100048.53;;;-6.18
71960;BMP280;59832;51.146;14.024;2022-12-18T08:08:48;100049.53;;;-5.91
71960;BMP280;59832;51.146;14.024;2022-12-18T08:11:15;100043.41;;;-5.95
71960;BMP280;59832;51.146;14.024;2022-12-18T08:13:41;100043.84;;;-5.63
71960;BMP280;59832;51.146;14.024;2022-12-18T08:16:08;100037.66;;;-5.46
71960;BMP280;59832;51.146;14.024;2022-12-18T08:18:38;100032.72;;;-5.39
71960;BMP280;59832;51.146;14.024;2022-12-18T08:21:16;100027.69;;;-5.12
71960;BMP280;59832;51.146;14.024;2022-12-18T08:23:43;100024.03;;;-4.68
71960;BMP280;59832;51.146;14.024;2022-12-18T08:26:13;100020.81;;;-5.10
71960;BMP280;59832;51.146;14.024;2022-12-18T08:28:40;100024.94;;;-4.89
71960;BMP280;59832;51.146;14.024;2022-12-18T08:31:07;100018.50;;;-4.70
71960;BMP280;59832;51.146;14.024;2022-12-18T08:33:35;100026.47;;;-4.81
71960;BMP280;59832;51.146;14.024;2022-12-18T08:36:04;100036.13;;;-4.52
71960;BMP280;59832;51.146;14.024;2022-12-18T08:38:33;100041.69;;;-4.30
71960;BMP280;59832;51.146;14.024;2022-12-18T08:41:04;100042.81;;;-4.06
71960;BMP280;59832;51.146;14.024;2022-12-18T08:43:30;100035.75;;;-3.83
71960;BMP280;59832;51.146;14.024;2022-12-18T08:46:16;100036.91;;;-4.18
71960;BMP280;59832;51.146;14.024;2022-12-18T08:48:43;100039.75;;;-3.75
71960;BMP280;59832;51.146;14.024;2022-12-18T08:51:10;100040.34;;;-3.86
71960;BMP280;59832;51.146;14.024;2022-12-18T08:53:36;100044.53;;;-3.67
71960;BMP280;59832;51.146;14.024;2022-12-18T08:56:05;100035.94;;;-3.64
71960;BMP280;59832;51.146;14.024;2022-12-18T08:58:31;100044.06;;;-3.31
71960;BMP280;59832;51.146;14.024;2022-12-18T09:01:02;100050.59;;;-3.43
71960;BMP280;59832;51.146;14.024;2022-12-18T09:03:29;100042.75;;;-3.40
71960;BMP280;59832;51.146;14.024;2022-12-18T09:05:56;100044.69;;;-3.49
71960;BMP280;59832;51.146;14.024;2022-12-18T09:08:22;100044.84;;;-3.37
71960;BMP280;59832;51.146;14.024;2022-12-18T09:10:50;100045.97;;;-2.82
71960;BMP280;59832;51.146;14.024;2022-12-18T09:13:17;100056.53;;;-3.44
71960;BMP280;59832;51.146;14.024;2022-12-18T09:15:46;100052.44;;;-3.19
71960;BMP280;59832;51.146;14.024;2022-12-18T09:18:15;100057.38;;;-3.63
71960;BMP280;59832;51.146;14.024;2022-12-18T09:20:42;100056.72;;;-3.39
71960;BMP280;59832;51.146;14.024;2022-12-18T09:23:09;100061.72;;;-3.52
71960;BMP280;59832;51.146;14.024;2022-12-18T09:25:36;100065.28;;;-3.15
71960;BMP280;59832;51.146;14.024;2022-12-18T09:28:06;100057.88;;;-2.52
71960;BMP280;59832;51.146;14.024;2022-12-18T09:30:33;100063.22;;;-2.49
71960;BMP280;59832;51.146;14.024;2022-12-18T09:33:00;100066.97;;;-2.40
71960;BMP280;59832;51.146;14.024;2022-12-18T09:35:27;100073.44;;;-2.07
71960;BMP280;59832;51.146;14.024;2022-12-18T09:37:54;100077.13;;;-2.35
71960;BMP280;59832;51.146;14.024;2022-12-18T09:40:24;100083.41;;;-3.02
71960;BMP280;59832;51.146;14.024;2022-12-18T09:42:54;100088.41;;;-2.57
71960;BMP280;59832;51.146;14.024;2022-12-18T09:45:22;100078.06;;;-3.05
71960;BMP280;59832;51.146;14.024;2022-12-18T09:47:50;100086.97;;;-3.29
71960;BMP280;59832;51.146;14.024;2022-12-18T09:50:32;100083.88;;;-2.73
71960;BMP280;59832;51.146;14.024;2022-12-18T09:53:07;100081.66;;;-2.94
71960;BMP280;59832;51.146;14.024;2022-12-18T09:55:40;100084.38;;;-2.27
71960;BMP280;59832;51.146;14.024;2022-12-18T09:58:20;100089.69;;;-2.48
71960;BMP280;59832;51.146;14.024;2022-12-18T10:00:52;100077.53;;;-3.14
71960;BMP280;59832;51.146;14.024;2022-12-18T10:03:18;100079.59;;;-3.04
71960;BMP280;59832;51.146;14.024;2022-12-18T10:05:58;100077.50;;;-3.07
71960;BMP280;59832;51.146;14.024;2022-12-18T10:11:03;100054.75;;;-2.48
71960;BMP280;59832;51.146;14.024;2022-12-18T10:13:51;100054.69;;;-3.04
71960;BMP280;59832;51.146;14.024;2022-12-18T10:16:49;100034.13;;;-2.86
71960;BMP280;59832;51.146;14.024;2022-12-18T10:22:42;100021.78;;;-2.50
71960;BMP280;59832;51.146;14.024;2022-12-18T10:25:22;100026.22;;;-3.21
71960;BMP280;59832;51.146;14.024;2022-12-18T10:27:53;100022.50;;;-3.06
71960;BMP280;59832;51.146;14.024;2022-12-18T10:30:23;100014.09;;;-3.11
71960;BMP280;59832;51.146;14.024;2022-12-18T10:32:50;100013.88;;;-3.03
71960;BMP280;59832;51.146;14.024;2022-12-18T10:35:19;100017.06;;;-2.65
71960;BMP280;59832;51.146;14.024;2022-12-18T10:38:01;100006.91;;;-2.13
71960;BMP280;59832;51.146;14.024;2022-12-18T10:40:28;99997.19;;;-2.21
71960;BMP280;59832;51.146;14.024;2022-12-18T10:43:12;100000.31;;;-2.51
71960;BMP280;59832;51.146;14.024;2022-12-18T10:45:39;99992.66;;;-2.31
71960;BMP280;59832;51.146;14.024;2022-12-18T10:48:18;99982.66;;;-1.88
71960;BMP280;59832;51.146;14.024;2022-12-18T10:50:49;99982.81;;;-2.44
71960;BMP280;59832;51.146;14.024;2022-12-18T10:53:37;99994.66;;;-1.97
71960;BMP280;59832;51.146;14.024;2022-12-18T10:56:05;99991.44;;;-1.31
71960;BMP280;59832;51.146;14.024;2022-12-18T10:58:35;99982.53;;;-1.27
71960;BMP280;59832;51.146;14.024;2022-12-18T11:01:18;99980.31;;;-1.65
71960;BMP280;59832;51.146;14.024;2022-12-18T11:06:28;99992.25;;;-1.07
71960;BMP280;59832;51.146;14.024;2022-12-18T11:08:59;99983.47;;;-0.98
71960;BMP280;59832;51.146;14.024;2022-12-18T11:11:26;99982.38;;;-1.62
71960;BMP280;59832;51.146;14.024;2022-12-18T11:14:05;99979.47;;;-1.95
71960;BMP280;59832;51.146;14.024;2022-12-18T11:16:34;99974.78;;;-1.85
71960;BMP280;59832;51.146;14.024;2022-12-18T11:21:50;99976.00;;;-1.58
71960;BMP280;59832;51.146;14.024;2022-12-18T11:24:25;99982.38;;;-1.14
71960;BMP280;59832;51.146;14.024;2022-12-18T11:26:54;99973.09;;;-2.09
71960;BMP280;59832;51.146;14.024;2022-12-18T11:29:32;99960.91;;;-2.61
71960;BMP280;59832;51.146;14.024;2022-12-18T11:34:57;99969.09;;;-2.85
71960;BMP280;59832;51.146;14.024;2022-12-18T11:37:24;99955.31;;;-3.63
71960;BMP280;59832;51.146;14.024;2022-12-18T11:39:56;99955.22;;;-3.44
71960;BMP280;59832;51.146;14.024;2022-12-18T11:42:45;99961.25;;;-3.64
71960;BMP280;59832;51.146;14.024;2022-12-18T11:47:56;99976.44;;;-4.06
71960;BMP280;59832;51.146;14.024;2022-12-18T11:50:26;99974.94;;;-4.13
71960;BMP280;59832;51.146;14.024;2022-12-18T11:52:55;99979.94;;;-4.33
71960;BMP280;59832;51.146;14.024;2022-12-18T11:58:24;99969.56;;;-4.43
71960;BMP280;59832;51.146;14.024;2022-12-18T12:01:08;99969.72;;;-4.58
71960;BMP280;59832;51.146;14.024;2022-12-18T12:03:54;99964.56;;;-4.76
71960;BMP280;59832;51.146;14.024;2022-12-18T12:06:32;99961.91;;;-4.48
71960;BMP280;59832;51.146;14.024;2022-12-18T12:15:03;99981.03;;;-4.55
71960;BMP280;59832;51.146;14.024;2022-12-18T12:17:38;99984.13;;;-4.33
71960;BMP280;59832;51.146;14.024;2022-12-18T12:20:41;99980.84;;;-4.60
71960;BMP280;59832;51.146;14.024;2022-12-18T12:34:31;99986.97;;;-4.23
71960;BMP280;59832;51.146;14.024;2022-12-18T12:39:40;99995.56;;;-4.06
71960;BMP280;59832;51.146;14.024;2022-12-18T12:42:29;100001.69;;;-4.22
71960;BMP280;59832;51.146;14.024;2022-12-18T12:45:26;100004.75;;;-4.53
71960;BMP280;59832;51.146;14.024;2022-12-18T12:47:55;100001.69;;;-4.48
71960;BMP280;59832;51.146;14.024;2022-12-18T12:50:24;100008.97;;;-4.53
71960;BMP280;59832;51.146;14.024;2022-12-18T12:52:53;100008.00;;;-4.52
71960;BMP280;59832;51.146;14.024;2022-12-18T12:55:26;100017.94;;;-4.46
71960;BMP280;59832;51.146;14.024;2022-12-18T13:00:20;100018.72;;;-4.32
71960;BMP280;59832;51.146;14.024;2022-12-18T13:02:56;100025.00;;;-4.62
71960;BMP280;59832;51.146;14.024;2022-12-18T13:05:48;100012.38;;;-4.67
71960;BMP280;59832;51.146;14.024;2022-12-18T13:08:24;99995.88;;;-4.88
71960;BMP280;59832;51.146;14.024;2022-12-18T13:10:53;100002.34;;;-4.94
71960;BMP280;59832;51.146;14.024;2022-12-18T13:13:53;99998.19;;;-5.28
71960;BMP280;59832;51.146;14.024;2022-12-18T13:16:24;99993.78;;;-5.39
71960;BMP280;59832;51.146;14.024;2022-12-18T13:18:52;99995.69;;;-5.41
71960;BMP280;59832;51.146;14.024;2022-12-18T13:21:25;100009.50;;;-5.19
71960;BMP280;59832;51.146;14.024;2022-12-18T13:23:53;100008.56;;;-5.18
71960;BMP280;59832;51.146;14.024;2022-12-18T13:28:56;100004.94;;;-5.22
71960;BMP280;59832;51.146;14.024;2022-12-18T13:34:29;100006.00;;;-5.37
71960;BMP280;59832;51.146;14.024;2022-12-18T13:39:59;99999.34;;;-5.37
71960;BMP280;59832;51.146;14.024;2022-12-18T13:46:16;99994.75;;;-5.40
71960;BMP280;59832;51.146;14.024;2022-12-18T13:48:27;99998.59;;;-5.31
71960;BMP280;59832;51.146;14.024;2022-12-18T13:51:09;100002.38;;;-5.35
71960;BMP280;59832;51.146;14.024;2022-12-18T13:53:38;100005.44;;;-5.33
71960;BMP280;59832;51.146;14.024;2022-12-18T13:56:05;100005.09;;;-5.30
71960;BMP280;59832;51.146;14.024;2022-12-18T13:58:32;100006.09;;;-5.18
71960;BMP280;59832;51.146;14.024;2022-12-18T14:00:59;100006.84;;;-5.24
71960;BMP280;59832;51.146;14.024;2022-12-18T14:03:29;100009.38;;;-5.11
71960;BMP280;59832;51.146;14.024;2022-12-18T14:06:03;99998.28;;;-5.56
71960;BMP280;59832;51.146;14.024;2022-12-18T14:08:36;99999.06;;;-5.55
71960;BMP280;59832;51.146;14.024;2022-12-18T14:11:04;99992.59;;;-5.43
71960;BMP280;59832;51.146;14.024;2022-12-18T14:13:37;100005.63;;;-5.34
71960;BMP280;59832;51.146;14.024;2022-12-18T14:16:12;100010.41;;;-5.39
71960;BMP280;59832;51.146;14.024;2022-12-18T14:21:25;100007.72;;;-5.38
71960;BMP280;59832;51.146;14.024;2022-12-18T14:24:12;100009.44;;;-5.38
71960;BMP280;59832;51.146;14.024;2022-12-18T14:26:40;99996.56;;;-5.83
71960;BMP280;59832;51.146;14.024;2022-12-18T14:29:29;99997.16;;;-5.81
71960;BMP280;59832;51.146;14.024;2022-12-18T14:32:18;100007.94;;;-5.61
71960;BMP280;59832;51.146;14.024;2022-12-18T14:34:49;99992.94;;;-5.53
71960;BMP280;59832;51.146;14.024;2022-12-18T14:37:21;99987.19;;;-5.88
71960;BMP280;59832;51.146;14.024;2022-12-18T14:39:54;99976.00;;;-5.77
71960;BMP280;59832;51.146;14.024;2022-12-18T14:42:21;99980.28;;;-5.92
71960;BMP280;59832;51.146;14.024;2022-12-18T14:44:47;99975.78;;;-5.82
71960;BMP280;59832;51.146;14.024;2022-12-18T14:47:34;99971.44;;;-5.73
71960;BMP280;59832;51.146;14.024;2022-12-18T14:50:00;99958.25;;;-5.74
71960;BMP280;59832;51.146;14.024;2022-12-18T14:52:29;99957.00;;;-5.63
71960;BMP280;59832;51.146;14.024;2022-12-18T14:54:57;99955.47;;;-5.64
71960;BMP280;59832;51.146;14.024;2022-12-18T14:57:25;99955.56;;;-5.79
71960;BMP280;59832;51.146;14.024;2022-12-18T15:00:22;99956.16;;;-5.77
71960;BMP280;59832;51.146;14.024;2022-12-18T15:02:56;99973.38;;;-5.97
71960;BMP280;59832;51.146;14.024;2022-12-18T15:05:28;99963.09;;;-5.94
71960;BMP280;59832;51.146;14.024;2022-12-18T15:07:57;99965.19;;;-5.97
71960;BMP280;59832;51.146;14.024;2022-12-18T15:10:29;99960.69;;;-5.87
71960;BMP280;59832;51.146;14.024;2022-12-18T15:20:43;99959.31;;;-5.90
71960;BMP280;59832;51.146;14.024;2022-12-18T15:23:16;99962.50;;;-5.96
71960;BMP280;59832;51.146;14.024;2022-12-18T15:25:44;99966.75;;;-5.90
71960;BMP280;59832;51.146;14.024;2022-12-18T15:28:19;99955.28;;;-5.97
71960;BMP280;59832;51.146;14.024;2022-12-18T15:33:30;99976.84;;;-5.91
71960;BMP280;59832;51.146;14.024;2022-12-18T15:36:00;99972.94;;;-6.07